Pearces, Michigan
Current Conditions -  °F | °C
As of 7:55 AM on Saturday 25 Oct 2014 (Local Time) from KOZW Reporting Station
Scattered Clouds Scattered Clouds  
Wind Chill: 52°   Ceiling: Unl
Heat Index: 52°   Visibility: 7mi
Dew Point: 49°   Wind: 8mph
Humidity: 89%   Direction: 220°SW
Pressure: 29.82"   Gusts: NA
Location:  42.7°N, 83.9305°W
Report Text: KOZW 251155Z AUTO 22007KT 7SM SCT029 SCT045 11/09 A2982 RMK AO2 T01100092 10113 20071
Loading
Personal Weather Stations






























Interactive Weather Map
Tropical Storm Tracking
New forecast layout! Learn more

10-Day Weather Forecast

Advertisements
Track Severe Weather on mobile